sensor_id;sensor_type;location;lat;lon;timestamp;temperature;humidity
26479;DHT22;14163;-26.142;27.992;2023-02-26T00:07:31;23.00;99.90
26479;DHT22;14163;-26.142;27.992;2023-02-26T00:10:00;23.00;99.90
26479;DHT22;14163;-26.142;27.992;2023-02-26T00:12:29;23.70;99.90
26479;DHT22;14163;-26.142;27.992;2023-02-26T00:14:57;24.40;99.90
26479;DHT22;14163;-26.142;27.992;2023-02-26T00:17:29;25.20;99.90
26479;DHT22;14163;-26.142;27.992;2023-02-26T00:19:59;25.70;99.90
26479;DHT22;14163;-26.142;27.992;2023-02-26T00:22:28;26.20;99.90
26479;DHT22;14163;-26.142;27.992;2023-02-26T00:24:58;26.50;99.90
26479;DHT22;14163;-26.142;27.992;2023-02-26T00:27:26;26.80;99.90
26479;DHT22;14163;-26.142;27.992;2023-02-26T00:29:55;26.90;99.90
26479;DHT22;14163;-26.142;27.992;2023-02-26T00:32:23;26.90;99.90
26479;DHT22;14163;-26.142;27.992;2023-02-26T00:34:52;26.90;99.90
26479;DHT22;14163;-26.142;27.992;2023-02-26T00:37:24;26.80;99.90
26479;DHT22;14163;-26.142;27.992;2023-02-26T00:39:57;26.40;99.90
26479;DHT22;14163;-26.142;27.992;2023-02-26T00:42:32;26.20;99.90
26479;DHT22;14163;-26.142;27.992;2023-02-26T00:45:00;26.20;99.90
26479;DHT22;14163;-26.142;27.992;2023-02-26T00:47:30;26.30;99.90
26479;DHT22;14163;-26.142;27.992;2023-02-26T00:50:03;26.60;99.90
26479;DHT22;14163;-26.142;27.992;2023-02-26T00:52:34;26.50;99.90
26479;DHT22;14163;-26.142;27.992;2023-02-26T00:55:03;26.20;99.90
26479;DHT22;14163;-26.142;27.992;2023-02-26T00:57:33;26.10;99.90
26479;DHT22;14163;-26.142;27.992;2023-02-26T01:00:02;26.20;99.90
26479;DHT22;14163;-26.142;27.992;2023-02-26T01:02:33;26.50;99.90
26479;DHT22;14163;-26.142;27.992;2023-02-26T01:05:01;26.50;99.90
26479;DHT22;14163;-26.142;27.992;2023-02-26T01:07:31;26.40;99.90
26479;DHT22;14163;-26.142;27.992;2023-02-26T01:10:04;26.20;99.90
26479;DHT22;14163;-26.142;27.992;2023-02-26T01:12:35;25.90;99.90
26479;DHT22;14163;-26.142;27.992;2023-02-26T01:15:04;25.90;99.90
26479;DHT22;14163;-26.142;27.992;2023-02-26T01:17:33;26.00;99.90
26479;DHT22;14163;-26.142;27.992;2023-02-26T01:20:05;26.10;99.90
26479;DHT22;14163;-26.142;27.992;2023-02-26T01:22:37;26.20;99.90
26479;DHT22;14163;-26.142;27.992;2023-02-26T01:25:07;26.30;99.90
26479;DHT22;14163;-26.142;27.992;2023-02-26T01:27:38;26.30;99.90
26479;DHT22;14163;-26.142;27.992;2023-02-26T01:30:07;25.90;99.90
26479;DHT22;14163;-26.142;27.992;2023-02-26T01:32:39;25.70;99.90
26479;DHT22;14163;-26.142;27.992;2023-02-26T01:35:13;25.60;99.90
26479;DHT22;14163;-26.142;27.992;2023-02-26T01:37:45;25.60;99.90
26479;DHT22;14163;-26.142;27.992;2023-02-26T01:40:26;25.30;99.90
26479;DHT22;14163;-26.142;27.992;2023-02-26T01:42:59;25.10;99.90
26479;DHT22;14163;-26.142;27.992;2023-02-26T01:45:30;24.50;99.90
26479;DHT22;14163;-26.142;27.992;2023-02-26T01:48:02;24.20;99.90
26479;DHT22;14163;-26.142;27.992;2023-02-26T01:50:32;24.00;99.90
26479;DHT22;14163;-26.142;27.992;2023-02-26T01:53:15;24.10;99.90
26479;DHT22;14163;-26.142;27.992;2023-02-26T01:55:45;24.00;99.90
26479;DHT22;14163;-26.142;27.992;2023-02-26T01:58:16;24.10;99.90
26479;DHT22;14163;-26.142;27.992;2023-02-26T02:00:44;24.50;99.90
26479;DHT22;14163;-26.142;27.992;2023-02-26T02:03:12;24.80;99.90
26479;DHT22;14163;-26.142;27.992;2023-02-26T02:05:41;24.80;99.90
26479;DHT22;14163;-26.142;27.992;2023-02-26T02:08:10;25.10;99.90
26479;DHT22;14163;-26.142;27.992;2023-02-26T02:10:40;25.30;99.90
26479;DHT22;14163;-26.142;27.992;2023-02-26T02:13:11;25.50;99.90
26479;DHT22;14163;-26.142;27.992;2023-02-26T02:15:43;25.50;99.90
26479;DHT22;14163;-26.142;27.992;2023-02-26T02:18:15;25.60;99.90
26479;DHT22;14163;-26.142;27.992;2023-02-26T02:20:56;25.60;99.90
26479;DHT22;14163;-26.142;27.992;2023-02-26T02:23:29;25.60;99.90
26479;DHT22;14163;-26.142;27.992;2023-02-26T02:26:18;25.60;99.90
26479;DHT22;14163;-26.142;27.992;2023-02-26T02:29:00;25.60;99.90
26479;DHT22;14163;-26.142;27.992;2023-02-26T02:31:32;25.70;99.90
26479;DHT22;14163;-26.142;27.992;2023-02-26T02:34:01;25.70;99.90
26479;DHT22;14163;-26.142;27.992;2023-02-26T02:36:32;25.70;99.90
26479;DHT22;14163;-26.142;27.992;2023-02-26T02:39:02;25.70;99.90
26479;DHT22;14163;-26.142;27.992;2023-02-26T02:41:36;25.70;99.90
26479;DHT22;14163;-26.142;27.992;2023-02-26T02:44:06;25.70;99.90
26479;DHT22;14163;-26.142;27.992;2023-02-26T02:46:39;25.70;99.90
26479;DHT22;14163;-26.142;27.992;2023-02-26T02:49:09;25.70;99.90
26479;DHT22;14163;-26.142;27.992;2023-02-26T02:51:40;25.70;99.90
26479;DHT22;14163;-26.142;27.992;2023-02-26T02:54:10;25.60;99.90
26479;DHT22;14163;-26.142;27.992;2023-02-26T02:56:41;25.60;99.90
26479;DHT22;14163;-26.142;27.992;2023-02-26T02:59:12;25.60;99.90
26479;DHT22;14163;-26.142;27.992;2023-02-26T03:01:44;25.60;99.90
26479;DHT22;14163;-26.142;27.992;2023-02-26T03:04:13;25.50;99.90
26479;DHT22;14163;-26.142;27.992;2023-02-26T03:06:41;25.50;99.90
26479;DHT22;14163;-26.142;27.992;2023-02-26T03:09:11;25.50;99.90
26479;DHT22;14163;-26.142;27.992;2023-02-26T03:11:40;25.60;99.90
26479;DHT22;14163;-26.142;27.992;2023-02-26T03:14:08;25.60;99.90
26479;DHT22;14163;-26.142;27.992;2023-02-26T03:16:46;25.70;99.90
26479;DHT22;14163;-26.142;27.992;2023-02-26T03:19:17;25.70;99.90
26479;DHT22;14163;-26.142;27.992;2023-02-26T03:21:47;25.70;99.90
26479;DHT22;14163;-26.142;27.992;2023-02-26T03:24:17;25.70;99.90
26479;DHT22;14163;-26.142;27.992;2023-02-26T03:26:47;25.70;99.90
26479;DHT22;14163;-26.142;27.992;2023-02-26T03:29:19;25.70;99.90
26479;DHT22;14163;-26.142;27.992;2023-02-26T03:31:53;25.70;99.90
26479;DHT22;14163;-26.142;27.992;2023-02-26T03:34:23;25.70;99.90
26479;DHT22;14163;-26.142;27.992;2023-02-26T03:36:54;25.70;99.90
26479;DHT22;14163;-26.142;27.992;2023-02-26T03:39:26;25.60;99.90
26479;DHT22;14163;-26.142;27.992;2023-02-26T03:42:01;25.50;99.90
26479;DHT22;14163;-26.142;27.992;2023-02-26T03:44:32;25.50;99.90
26479;DHT22;14163;-26.142;27.992;2023-02-26T03:47:03;25.50;99.90
26479;DHT22;14163;-26.142;27.992;2023-02-26T03:49:33;25.80;99.90
26479;DHT22;14163;-26.142;27.992;2023-02-26T03:52:03;25.50;99.90
26479;DHT22;14163;-26.142;27.992;2023-02-26T03:54:32;25.40;99.90
26479;DHT22;14163;-26.142;27.992;2023-02-26T03:57:02;25.30;99.90
26479;DHT22;14163;-26.142;27.992;2023-02-26T03:59:31;25.30;99.90
26479;DHT22;14163;-26.142;27.992;2023-02-26T06:05:47;23.10;99.90
26479;DHT22;14163;-26.142;27.992;2023-02-26T06:08:15;21.70;99.90
26479;DHT22;14163;-26.142;27.992;2023-02-26T06:10:44;22.40;99.90
26479;DHT22;14163;-26.142;27.992;2023-02-26T06:13:12;23.20;99.90
26479;DHT22;14163;-26.142;27.992;2023-02-26T06:15:40;23.70;99.90
26479;DHT22;14163;-26.142;27.992;2023-02-26T06:18:08;24.10;99.90
26479;DHT22;14163;-26.142;27.992;2023-02-26T06:20:37;24.50;99.90
26479;DHT22;14163;-26.142;27.992;2023-02-26T06:23:07;24.80;99.90
26479;DHT22;14163;-26.142;27.992;2023-02-26T06:25:35;24.80;99.90
26479;DHT22;14163;-26.142;27.992;2023-02-26T06:28:03;24.80;99.90
26479;DHT22;14163;-26.142;27.992;2023-02-26T06:30:32;25.10;99.90
26479;DHT22;14163;-26.142;27.992;2023-02-26T06:33:00;25.40;99.90
26479;DHT22;14163;-26.142;27.992;2023-02-26T06:35:28;25.60;99.90
26479;DHT22;14163;-26.142;27.992;2023-02-26T06:37:57;25.90;99.90
26479;DHT22;14163;-26.142;27.992;2023-02-26T06:40:28;26.20;99.90
26479;DHT22;14163;-26.142;27.992;2023-02-26T06:42:56;26.20;99.90
26479;DHT22;14163;-26.142;27.992;2023-02-26T06:45:25;26.20;99.90
26479;DHT22;14163;-26.142;27.992;2023-02-26T06:47:53;26.00;99.90
26479;DHT22;14163;-26.142;27.992;2023-02-26T06:50:21;26.20;99.90
26479;DHT22;14163;-26.142;27.992;2023-02-26T06:52:50;26.30;99.90
26479;DHT22;14163;-26.142;27.992;2023-02-26T06:55:18;26.40;99.90
26479;DHT22;14163;-26.142;27.992;2023-02-26T06:57:53;26.60;99.90
26479;DHT22;14163;-26.142;27.992;2023-02-26T07:00:22;26.60;99.90
26479;DHT22;14163;-26.142;27.992;2023-02-26T07:02:50;26.70;99.90
26479;DHT22;14163;-26.142;27.992;2023-02-26T07:05:19;26.70;99.90
26479;DHT22;14163;-26.142;27.992;2023-02-26T07:07:47;26.90;99.90
26479;DHT22;14163;-26.142;27.992;2023-02-26T07:10:16;26.90;99.90
26479;DHT22;14163;-26.142;27.992;2023-02-26T07:12:46;26.90;99.90
26479;DHT22;14163;-26.142;27.992;2023-02-26T07:15:16;26.90;99.90
26479;DHT22;14163;-26.142;27.992;2023-02-26T07:17:45;26.50;99.90
26479;DHT22;14163;-26.142;27.992;2023-02-26T07:20:13;26.50;99.90
26479;DHT22;14163;-26.142;27.992;2023-02-26T07:22:43;26.70;99.90
26479;DHT22;14163;-26.142;27.992;2023-02-26T07:25:11;26.90;99.90
26479;DHT22;14163;-26.142;27.992;2023-02-26T07:27:40;27.00;99.90
26479;DHT22;14163;-26.142;27.992;2023-02-26T07:30:09;27.00;99.90
26479;DHT22;14163;-26.142;27.992;2023-02-26T07:32:39;26.90;99.90
26479;DHT22;14163;-26.142;27.992;2023-02-26T07:35:07;27.00;99.90
26479;DHT22;14163;-26.142;27.992;2023-02-26T07:37:36;26.90;99.90
26479;DHT22;14163;-26.142;27.992;2023-02-26T07:40:04;26.70;99.90
26479;DHT22;14163;-26.142;27.992;2023-02-26T07:42:33;26.50;99.90
26479;DHT22;14163;-26.142;27.992;2023-02-26T07:45:01;26.40;99.90
26479;DHT22;14163;-26.142;27.992;2023-02-26T07:47:30;26.10;99.90
26479;DHT22;14163;-26.142;27.992;2023-02-26T07:50:00;25.60;99.90
26479;DHT22;14163;-26.142;27.992;2023-02-26T07:52:28;25.80;99.90
26479;DHT22;14163;-26.142;27.992;2023-02-26T07:54:56;26.10;99.90
26479;DHT22;14163;-26.142;27.992;2023-02-26T07:57:25;26.40;99.90
26479;DHT22;14163;-26.142;27.992;2023-02-26T07:59:53;26.20;99.90
26479;DHT22;14163;-26.142;27.992;2023-02-26T08:02:21;26.50;99.90
26479;DHT22;14163;-26.142;27.992;2023-02-26T08:04:50;26.80;99.90
26479;DHT22;14163;-26.142;27.992;2023-02-26T08:07:20;27.00;99.90
26479;DHT22;14163;-26.142;27.992;2023-02-26T08:09:49;27.20;99.90
26479;DHT22;14163;-26.142;27.992;2023-02-26T08:12:17;27.20;99.90
26479;DHT22;14163;-26.142;27.992;2023-02-26T08:14:45;27.20;99.90
26479;DHT22;14163;-26.142;27.992;2023-02-26T08:17:14;27.20;99.90
26479;DHT22;14163;-26.142;27.992;2023-02-26T08:19:42;27.20;99.90
26479;DHT22;14163;-26.142;27.992;2023-02-26T08:22:10;26.90;99.90
26479;DHT22;14163;-26.142;27.992;2023-02-26T08:24:41;27.00;99.90
26479;DHT22;14163;-26.142;27.992;2023-02-26T08:27:09;27.20;99.90
26479;DHT22;14163;-26.142;27.992;2023-02-26T08:29:39;27.20;99.90
26479;DHT22;14163;-26.142;27.992;2023-02-26T08:32:08;27.50;99.90
26479;DHT22;14163;-26.142;27.992;2023-02-26T08:34:36;27.70;99.90
26479;DHT22;14163;-26.142;27.992;2023-02-26T08:37:04;27.80;99.90
26479;DHT22;14163;-26.142;27.992;2023-02-26T08:39:34;27.80;99.90
26479;DHT22;14163;-26.142;27.992;2023-02-26T08:42:05;27.70;99.90
26479;DHT22;14163;-26.142;27.992;2023-02-26T08:44:34;27.50;99.90
26479;DHT22;14163;-26.142;27.992;2023-02-26T08:47:02;27.50;99.90
26479;DHT22;14163;-26.142;27.992;2023-02-26T08:49:31;27.80;99.90
26479;DHT22;14163;-26.142;27.992;2023-02-26T08:51:59;28.00;99.90
26479;DHT22;14163;-26.142;27.992;2023-02-26T08:54:27;28.10;99.90
26479;DHT22;14163;-26.142;27.992;2023-02-26T08:56:56;28.30;99.90
26479;DHT22;14163;-26.142;27.992;2023-02-26T08:59:26;28.40;99.90
26479;DHT22;14163;-26.142;27.992;2023-02-26T09:01:57;28.70;99.90
26479;DHT22;14163;-26.142;27.992;2023-02-26T09:04:26;28.80;99.90
26479;DHT22;14163;-26.142;27.992;2023-02-26T09:06:54;28.80;99.90
26479;DHT22;14163;-26.142;27.992;2023-02-26T09:09:22;28.80;99.90
26479;DHT22;14163;-26.142;27.992;2023-02-26T09:11:51;28.90;99.90
26479;DHT22;14163;-26.142;27.992;2023-02-26T09:14:19;28.70;99.90
26479;DHT22;14163;-26.142;27.992;2023-02-26T09:16:49;28.40;99.90
26479;DHT22;14163;-26.142;27.992;2023-02-26T09:19:17;28.50;99.90
26479;DHT22;14163;-26.142;27.992;2023-02-26T09:21:46;28.80;99.90
26479;DHT22;14163;-26.142;27.992;2023-02-26T09:24:14;29.00;99.90
26479;DHT22;14163;-26.142;27.992;2023-02-26T09:26:43;29.10;99.90
26479;DHT22;14163;-26.142;27.992;2023-02-26T09:29:11;29.00;99.90
26479;DHT22;14163;-26.142;27.992;2023-02-26T09:31:39;29.10;99.90
26479;DHT22;14163;-26.142;27.992;2023-02-26T09:34:09;29.20;99.90
26479;DHT22;14163;-26.142;27.992;2023-02-26T09:36:38;29.30;99.90
26479;DHT22;14163;-26.142;27.992;2023-02-26T09:39:06;29.40;99.90
26479;DHT22;14163;-26.142;27.992;2023-02-26T09:41:36;29.40;99.90
26479;DHT22;14163;-26.142;27.992;2023-02-26T09:44:15;29.40;99.90
26479;DHT22;14163;-26.142;27.992;2023-02-26T09:46:46;29.40;99.90
26479;DHT22;14163;-26.142;27.992;2023-02-26T09:49:24;29.50;99.90
26479;DHT22;14163;-26.142;27.992;2023-02-26T09:51:55;29.50;99.90
26479;DHT22;14163;-26.142;27.992;2023-02-26T09:54:26;29.30;99.90
26479;DHT22;14163;-26.142;27.992;2023-02-26T09:56:56;29.30;99.90
26479;DHT22;14163;-26.142;27.992;2023-02-26T09:59:26;29.40;99.90
26479;DHT22;14163;-26.142;27.992;2023-02-26T10:01:59;29.50;99.90
26479;DHT22;14163;-26.142;27.992;2023-02-26T10:04:36;29.50;99.90
26479;DHT22;14163;-26.142;27.992;2023-02-26T10:07:08;29.50;99.90
26479;DHT22;14163;-26.142;27.992;2023-02-26T10:09:43;29.30;99.90
26479;DHT22;14163;-26.142;27.992;2023-02-26T10:12:15;29.50;99.90
26479;DHT22;14163;-26.142;27.992;2023-02-26T10:14:45;29.60;99.90
26479;DHT22;14163;-26.142;27.992;2023-02-26T10:17:17;29.70;99.90
26479;DHT22;14163;-26.142;27.992;2023-02-26T10:19:51;29.80;99.90
26479;DHT22;14163;-26.142;27.992;2023-02-26T10:22:23;29.90;99.90
26479;DHT22;14163;-26.142;27.992;2023-02-26T10:24:54;30.00;99.90
26479;DHT22;14163;-26.142;27.992;2023-02-26T10:27:26;29.90;99.90
26479;DHT22;14163;-26.142;27.992;2023-02-26T10:29:58;30.10;99.90
26479;DHT22;14163;-26.142;27.992;2023-02-26T10:32:31;30.00;99.90
26479;DHT22;14163;-26.142;27.992;2023-02-26T10:35:02;29.60;99.90
26479;DHT22;14163;-26.142;27.992;2023-02-26T10:37:37;29.60;99.90
26479;DHT22;14163;-26.142;27.992;2023-02-26T10:40:10;29.50;99.90
26479;DHT22;14163;-26.142;27.992;2023-02-26T10:42:41;29.60;99.90
26479;DHT22;14163;-26.142;27.992;2023-02-26T10:45:16;29.90;99.90
26479;DHT22;14163;-26.142;27.992;2023-02-26T10:47:51;30.00;99.90
26479;DHT22;14163;-26.142;27.992;2023-02-26T10:50:22;30.30;99.90
26479;DHT22;14163;-26.142;27.992;2023-02-26T10:52:52;30.50;99.90
26479;DHT22;14163;-26.142;27.992;2023-02-26T10:55:24;30.60;99.90
26479;DHT22;14163;-26.142;27.992;2023-02-26T10:57:55;30.80;99.90
26479;DHT22;14163;-26.142;27.992;2023-02-26T11:00:26;30.80;99.90
26479;DHT22;14163;-26.142;27.992;2023-02-26T11:02:54;30.80;99.90
26479;DHT22;14163;-26.142;27.992;2023-02-26T11:05:25;30.90;99.90
26479;DHT22;14163;-26.142;27.992;2023-02-26T11:07:55;31.10;99.90
26479;DHT22;14163;-26.142;27.992;2023-02-26T11:10:25;31.20;99.90
26479;DHT22;14163;-26.142;27.992;2023-02-26T11:12:54;31.10;99.90
26479;DHT22;14163;-26.142;27.992;2023-02-26T11:15:24;31.20;99.90
26479;DHT22;14163;-26.142;27.992;2023-02-26T11:17:53;31.40;99.90
26479;DHT22;14163;-26.142;27.992;2023-02-26T11:20:27;31.40;99.90
26479;DHT22;14163;-26.142;27.992;2023-02-26T11:22:57;31.60;99.90
26479;DHT22;14163;-26.142;27.992;2023-02-26T11:25:26;31.80;99.90
26479;DHT22;14163;-26.142;27.992;2023-02-26T11:27:57;31.90;99.90
26479;DHT22;14163;-26.142;27.992;2023-02-26T11:30:27;31.70;99.90
26479;DHT22;14163;-26.142;27.992;2023-02-26T11:32:57;31.40;99.90
26479;DHT22;14163;-26.142;27.992;2023-02-26T11:35:27;30.90;99.90
26479;DHT22;14163;-26.142;27.992;2023-02-26T11:37:56;31.00;99.90
26479;DHT22;14163;-26.142;27.992;2023-02-26T11:40:31;31.40;99.90
26479;DHT22;14163;-26.142;27.992;2023-02-26T11:43:02;31.70;99.90
26479;DHT22;14163;-26.142;27.992;2023-02-26T11:45:33;32.00;99.90
26479;DHT22;14163;-26.142;27.992;2023-02-26T11:48:03;32.30;99.90
26479;DHT22;14163;-26.142;27.992;2023-02-26T11:50:35;32.90;99.90
26479;DHT22;14163;-26.142;27.992;2023-02-26T11:53:06;33.50;99.90
26479;DHT22;14163;-26.142;27.992;2023-02-26T11:55:43;34.10;99.90
26479;DHT22;14163;-26.142;27.992;2023-02-26T11:58:19;34.60;99.90
26479;DHT22;14163;-26.142;27.992;2023-02-26T12:00:48;35.30;99.90
26479;DHT22;14163;-26.142;27.992;2023-02-26T13:15:54;36.20;99.90
26479;DHT22;14163;-26.142;27.992;2023-02-26T13:18:29;36.30;98.50
26479;DHT22;14163;-26.142;27.992;2023-02-26T13:21:01;36.90;96.90
26479;DHT22;14163;-26.142;27.992;2023-02-26T13:23:32;37.90;95.90
26479;DHT22;14163;-26.142;27.992;2023-02-26T13:26:03;38.90;93.70
26479;DHT22;14163;-26.142;27.992;2023-02-26T13:28:35;39.40;92.10
26479;DHT22;14163;-26.142;27.992;2023-02-26T13:31:06;40.00;90.80
26479;DHT22;14163;-26.142;27.992;2023-02-26T13:33:36;39.90;89.50
26479;DHT22;14163;-26.142;27.992;2023-02-26T13:36:04;39.90;88.20
26479;DHT22;14163;-26.142;27.992;2023-02-26T13:38:45;39.40;87.70
26479;DHT22;14163;-26.142;27.992;2023-02-26T13:41:15;39.10;87.10
26479;DHT22;14163;-26.142;27.992;2023-02-26T13:43:51;39.10;86.20
26479;DHT22;14163;-26.142;27.992;2023-02-26T13:46:31;39.10;86.20
26479;DHT22;14163;-26.142;27.992;2023-02-26T13:49:02;38.60;85.90
26479;DHT22;14163;-26.142;27.992;2023-02-26T13:51:33;38.10;86.20
26479;DHT22;14163;-26.142;27.992;2023-02-26T13:54:06;37.80;86.70
26479;DHT22;14163;-26.142;27.992;2023-02-26T13:59:25;37.70;85.30
26479;DHT22;14163;-26.142;27.992;2023-02-26T14:01:59;37.10;85.00
26479;DHT22;14163;-26.142;27.992;2023-02-26T14:04:28;36.50;86.20
26479;DHT22;14163;-26.142;27.992;2023-02-26T14:09:28;35.60;87.80
26479;DHT22;14163;-26.142;27.992;2023-02-26T14:11:57;35.20;88.90
26479;DHT22;14163;-26.142;27.992;2023-02-26T14:14:32;35.00;89.70
26479;DHT22;14163;-26.142;27.992;2023-02-26T14:20:06;34.80;90.40
26479;DHT22;14163;-26.142;27.992;2023-02-26T14:22:36;34.70;90.60
26479;DHT22;14163;-26.142;27.992;2023-02-26T14:25:12;34.60;90.80
26479;DHT22;14163;-26.142;27.992;2023-02-26T14:27:44;34.50;90.90
26479;DHT22;14163;-26.142;27.992;2023-02-26T14:30:16;34.30;91.00
26479;DHT22;14163;-26.142;27.992;2023-02-26T14:32:46;34.10;91.20
26479;DHT22;14163;-26.142;27.992;2023-02-26T14:35:15;34.10;91.40
26479;DHT22;14163;-26.142;27.992;2023-02-26T14:37:44;34.00;91.70
26479;DHT22;14163;-26.142;27.992;2023-02-26T14:40:18;33.90;92.00
26479;DHT22;14163;-26.142;27.992;2023-02-26T14:42:50;33.90;92.00
26479;DHT22;14163;-26.142;27.992;2023-02-26T14:45:26;33.80;92.30
26479;DHT22;14163;-26.142;27.992;2023-02-26T14:47:55;33.60;92.70
26479;DHT22;14163;-26.142;27.992;2023-02-26T14:50:24;33.50;92.90
26479;DHT22;14163;-26.142;27.992;2023-02-26T14:53:05;33.30;92.80
26479;DHT22;14163;-26.142;27.992;2023-02-26T14:55:54;33.20;93.00
26479;DHT22;14163;-26.142;27.992;2023-02-26T15:01:15;33.20;93.50
26479;DHT22;14163;-26.142;27.992;2023-02-26T15:03:53;33.10;93.40
26479;DHT22;14163;-26.142;27.992;2023-02-26T15:06:29;33.20;93.30
26479;DHT22;14163;-26.142;27.992;2023-02-26T15:09:02;33.30;93.40
26479;DHT22;14163;-26.142;27.992;2023-02-26T15:11:40;33.30;93.50
26479;DHT22;14163;-26.142;27.992;2023-02-26T15:16:55;33.30;93.80
26479;DHT22;14163;-26.142;27.992;2023-02-26T15:19:30;33.20;94.20
26479;DHT22;14163;-26.142;27.992;2023-02-26T15:22:03;33.10;94.40
26479;DHT22;14163;-26.142;27.992;2023-02-26T15:24:34;33.10;94.80
26479;DHT22;14163;-26.142;27.992;2023-02-26T15:27:04;33.10;94.80
26479;DHT22;14163;-26.142;27.992;2023-02-26T15:29:34;33.10;94.60
26479;DHT22;14163;-26.142;27.992;2023-02-26T15:32:05;33.00;94.60
26479;DHT22;14163;-26.142;27.992;2023-02-26T15:34:33;32.90;94.50
26479;DHT22;14163;-26.142;27.992;2023-02-26T15:37:01;32.90;94.70
26479;DHT22;14163;-26.142;27.992;2023-02-26T15:39:30;32.80;94.80
26479;DHT22;14163;-26.142;27.992;2023-02-26T15:41:58;32.80;95.10
26479;DHT22;14163;-26.142;27.992;2023-02-26T15:44:29;32.90;95.20
26479;DHT22;14163;-26.142;27.992;2023-02-26T15:46:58;32.80;95.20
26479;DHT22;14163;-26.142;27.992;2023-02-26T15:49:27;32.80;95.30
26479;DHT22;14163;-26.142;27.992;2023-02-26T15:51:56;32.70;95.20
26479;DHT22;14163;-26.142;27.992;2023-02-26T15:54:27;32.80;95.40
26479;DHT22;14163;-26.142;27.992;2023-02-26T15:56:58;32.80;95.40
26479;DHT22;14163;-26.142;27.992;2023-02-26T15:59:29;32.70;95.50
26479;DHT22;14163;-26.142;27.992;2023-02-26T16:02:00;32.60;95.60
26479;DHT22;14163;-26.142;27.992;2023-02-26T16:04:29;32.50;95.80
26479;DHT22;14163;-26.142;27.992;2023-02-26T16:06:57;32.30;95.90
26479;DHT22;14163;-26.142;27.992;2023-02-26T16:09:27;32.20;96.80
26479;DHT22;14163;-26.142;27.992;2023-02-26T16:11:57;32.10;96.70
26479;DHT22;14163;-26.142;27.992;2023-02-26T16:14:29;32.10;96.90
26479;DHT22;14163;-26.142;27.992;2023-02-26T16:17:00;32.00;97.00
26479;DHT22;14163;-26.142;27.992;2023-02-26T16:19:32;31.90;97.20
26479;DHT22;14163;-26.142;27.992;2023-02-26T16:22:15;31.90;97.40
26479;DHT22;14163;-26.142;27.992;2023-02-26T16:24:46;31.80;97.50
26479;DHT22;14163;-26.142;27.992;2023-02-26T16:27:15;31.70;97.60
26479;DHT22;14163;-26.142;27.992;2023-02-26T16:29:45;31.70;97.80
26479;DHT22;14163;-26.142;27.992;2023-02-26T16:32:16;31.60;98.00
26479;DHT22;14163;-26.142;27.992;2023-02-26T16:34:48;31.50;98.20
26479;DHT22;14163;-26.142;27.992;2023-02-26T16:37:20;31.50;98.30
26479;DHT22;14163;-26.142;27.992;2023-02-26T16:39:51;31.50;98.50
26479;DHT22;14163;-26.142;27.992;2023-02-26T16:42:20;31.40;98.80
26479;DHT22;14163;-26.142;27.992;2023-02-26T16:44:49;31.40;99.00
26479;DHT22;14163;-26.142;27.992;2023-02-26T16:47:20;31.30;99.10
26479;DHT22;14163;-26.142;27.992;2023-02-26T16:49:49;31.20;99.60
26479;DHT22;14163;-26.142;27.992;2023-02-26T16:52:19;31.10;99.40
26479;DHT22;14163;-26.142;27.992;2023-02-26T16:54:55;31.10;99.50
26479;DHT22;14163;-26.142;27.992;2023-02-26T16:57:27;31.00;99.70
26479;DHT22;14163;-26.142;27.992;2023-02-26T16:59:58;30.90;99.90
26479;DHT22;14163;-26.142;27.992;2023-02-26T17:02:31;30.80;99.90
26479;DHT22;14163;-26.142;27.992;2023-02-26T17:05:01;30.80;99.90
26479;DHT22;14163;-26.142;27.992;2023-02-26T17:07:30;30.70;99.90
26479;DHT22;14163;-26.142;27.992;2023-02-26T17:10:07;30.60;99.90
26479;DHT22;14163;-26.142;27.992;2023-02-26T17:12:41;30.60;99.90
26479;DHT22;14163;-26.142;27.992;2023-02-26T17:15:12;30.50;99.90
26479;DHT22;14163;-26.142;27.992;2023-02-26T17:17:44;30.40;99.90
26479;DHT22;14163;-26.142;27.992;2023-02-26T17:20:12;30.40;99.90
26479;DHT22;14163;-26.142;27.992;2023-02-26T17:22:41;30.40;99.90
26479;DHT22;14163;-26.142;27.992;2023-02-26T17:25:13;30.40;99.90
26479;DHT22;14163;-26.142;27.992;2023-02-26T17:27:42;30.40;99.90
26479;DHT22;14163;-26.142;27.992;2023-02-26T17:30:11;30.30;99.90
26479;DHT22;14163;-26.142;27.992;2023-02-26T17:32:41;30.40;99.90
26479;DHT22;14163;-26.142;27.992;2023-02-26T17:35:13;30.40;99.90
26479;DHT22;14163;-26.142;27.992;2023-02-26T17:37:41;30.30;99.90
26479;DHT22;14163;-26.142;27.992;2023-02-26T17:40:15;30.30;99.90
26479;DHT22;14163;-26.142;27.992;2023-02-26T17:42:44;30.20;99.90
26479;DHT22;14163;-26.142;27.992;2023-02-26T17:45:12;30.20;99.90
26479;DHT22;14163;-26.142;27.992;2023-02-26T17:47:41;30.10;99.90
26479;DHT22;14163;-26.142;27.992;2023-02-26T17:50:21;30.00;99.90
26479;DHT22;14163;-26.142;27.992;2023-02-26T17:52:50;30.00;99.90
26479;DHT22;14163;-26.142;27.992;2023-02-26T17:55:19;30.10;99.90
26479;DHT22;14163;-26.142;27.992;2023-02-26T17:57:47;30.20;99.90
26479;DHT22;14163;-26.142;27.992;2023-02-26T18:00:16;30.30;99.90
26479;DHT22;14163;-26.142;27.992;2023-02-26T18:02:45;30.40;99.90
26479;DHT22;14163;-26.142;27.992;2023-02-26T18:05:13;30.50;99.90
26479;DHT22;14163;-26.142;27.992;2023-02-26T18:07:43;30.30;99.90
26479;DHT22;14163;-26.142;27.992;2023-02-26T18:10:15;30.30;99.90
26479;DHT22;14163;-26.142;27.992;2023-02-26T18:12:43;30.20;99.90
26479;DHT22;14163;-26.142;27.992;2023-02-26T18:15:12;30.00;99.90
26479;DHT22;14163;-26.142;27.992;2023-02-26T18:17:41;30.00;99.90
26479;DHT22;14163;-26.142;27.992;2023-02-26T18:20:14;29.90;99.90
26479;DHT22;14163;-26.142;27.992;2023-02-26T18:22:44;29.70;99.90
26479;DHT22;14163;-26.142;27.992;2023-02-26T18:25:13;29.70;99.90
26479;DHT22;14163;-26.142;27.992;2023-02-26T18:27:42;29.70;99.90
26479;DHT22;14163;-26.142;27.992;2023-02-26T18:30:13;29.70;99.90
26479;DHT22;14163;-26.142;27.992;2023-02-26T18:32:44;29.70;99.90
26479;DHT22;14163;-26.142;27.992;2023-02-26T18:35:12;29.60;99.90
26479;DHT22;14163;-26.142;27.992;2023-02-26T18:37:44;29.60;99.90
26479;DHT22;14163;-26.142;27.992;2023-02-26T18:40:13;29.60;99.90
26479;DHT22;14163;-26.142;27.992;2023-02-26T18:42:42;29.50;99.90
26479;DHT22;14163;-26.142;27.992;2023-02-26T18:45:10;29.50;99.90
26479;DHT22;14163;-26.142;27.992;2023-02-26T18:47:39;29.50;99.90
26479;DHT22;14163;-26.142;27.992;2023-02-26T18:50:08;29.40;99.90
26479;DHT22;14163;-26.142;27.992;2023-02-26T18:52:36;29.30;99.90
26479;DHT22;14163;-26.142;27.992;2023-02-26T18:55:07;29.30;99.90
26479;DHT22;14163;-26.142;27.992;2023-02-26T18:57:37;29.30;99.90
26479;DHT22;14163;-26.142;27.992;2023-02-26T19:00:07;29.20;99.90